sensor_id;sensor_type;location;lat;lon;timestamp;temperature;humidity
14755;DHT22;7469;50.906;6.952;2023-09-19T00:00:44;17.70;99.90
14755;DHT22;7469;50.906;6.952;2023-09-19T00:03:14;17.70;99.90
14755;DHT22;7469;50.906;6.952;2023-09-19T00:05:43;17.60;99.90
14755;DHT22;7469;50.906;6.952;2023-09-19T00:08:13;17.60;99.90
14755;DHT22;7469;50.906;6.952;2023-09-19T00:10:41;17.60;99.90
14755;DHT22;7469;50.906;6.952;2023-09-19T00:13:10;17.60;99.90
14755;DHT22;7469;50.906;6.952;2023-09-19T00:15:44;17.60;99.90
14755;DHT22;7469;50.906;6.952;2023-09-19T00:18:16;17.60;99.90
14755;DHT22;7469;50.906;6.952;2023-09-19T00:20:45;17.50;99.90
14755;DHT22;7469;50.906;6.952;2023-09-19T00:23:14;17.50;99.90
14755;DHT22;7469;50.906;6.952;2023-09-19T00:25:43;17.50;99.90
14755;DHT22;7469;50.906;6.952;2023-09-19T00:28:12;17.50;99.90
14755;DHT22;7469;50.906;6.952;2023-09-19T00:30:45;17.50;99.90
14755;DHT22;7469;50.906;6.952;2023-09-19T00:33:16;17.50;99.90
14755;DHT22;7469;50.906;6.952;2023-09-19T00:35:49;17.50;99.90
14755;DHT22;7469;50.906;6.952;2023-09-19T00:38:17;17.40;99.90
14755;DHT22;7469;50.906;6.952;2023-09-19T00:40:48;17.40;99.90
14755;DHT22;7469;50.906;6.952;2023-09-19T00:43:16;17.40;99.90
14755;DHT22;7469;50.906;6.952;2023-09-19T00:45:48;17.40;99.90
14755;DHT22;7469;50.906;6.952;2023-09-19T00:48:16;17.40;99.90
14755;DHT22;7469;50.906;6.952;2023-09-19T00:50:46;17.40;99.90
14755;DHT22;7469;50.906;6.952;2023-09-19T00:53:18;17.30;99.90
14755;DHT22;7469;50.906;6.952;2023-09-19T00:55:47;17.30;99.90
14755;DHT22;7469;50.906;6.952;2023-09-19T00:58:16;17.30;99.90
14755;DHT22;7469;50.906;6.952;2023-09-19T01:00:47;17.30;99.90
14755;DHT22;7469;50.906;6.952;2023-09-19T01:03:15;17.30;99.90
14755;DHT22;7469;50.906;6.952;2023-09-19T01:05:45;17.30;99.90
14755;DHT22;7469;50.906;6.952;2023-09-19T01:08:13;17.40;99.90
14755;DHT22;7469;50.906;6.952;2023-09-19T01:10:49;17.40;99.90
14755;DHT22;7469;50.906;6.952;2023-09-19T01:13:25;17.40;99.90
14755;DHT22;7469;50.906;6.952;2023-09-19T01:16:03;17.40;99.90
14755;DHT22;7469;50.906;6.952;2023-09-19T01:18:42;17.50;99.90
14755;DHT22;7469;50.906;6.952;2023-09-19T01:21:17;17.50;99.90
14755;DHT22;7469;50.906;6.952;2023-09-19T01:27:06;17.50;99.90
14755;DHT22;7469;50.906;6.952;2023-09-19T01:29:42;17.50;99.90
14755;DHT22;7469;50.906;6.952;2023-09-19T01:32:17;17.50;99.90
14755;DHT22;7469;50.906;6.952;2023-09-19T01:34:50;17.50;99.90
14755;DHT22;7469;50.906;6.952;2023-09-19T01:37:21;17.50;99.90
14755;DHT22;7469;50.906;6.952;2023-09-19T01:39:56;17.50;99.90
14755;DHT22;7469;50.906;6.952;2023-09-19T01:42:31;17.50;99.90
14755;DHT22;7469;50.906;6.952;2023-09-19T01:45:08;17.50;99.90
14755;DHT22;7469;50.906;6.952;2023-09-19T01:47:42;17.50;99.90
14755;DHT22;7469;50.906;6.952;2023-09-19T01:50:17;17.40;99.90
14755;DHT22;7469;50.906;6.952;2023-09-19T01:52:51;17.40;99.90
14755;DHT22;7469;50.906;6.952;2023-09-19T01:55:22;17.40;99.90
14755;DHT22;7469;50.906;6.952;2023-09-19T01:58:01;17.40;99.90
14755;DHT22;7469;50.906;6.952;2023-09-19T02:00:33;17.40;99.90
14755;DHT22;7469;50.906;6.952;2023-09-19T02:03:06;17.40;99.90
14755;DHT22;7469;50.906;6.952;2023-09-19T02:05:34;17.30;99.90
14755;DHT22;7469;50.906;6.952;2023-09-19T02:08:03;17.30;99.90
14755;DHT22;7469;50.906;6.952;2023-09-19T02:10:31;17.30;99.90
14755;DHT22;7469;50.906;6.952;2023-09-19T02:13:00;17.30;99.90
14755;DHT22;7469;50.906;6.952;2023-09-19T02:15:31;17.20;99.90
14755;DHT22;7469;50.906;6.952;2023-09-19T02:18:01;17.30;99.90
14755;DHT22;7469;50.906;6.952;2023-09-19T02:20:30;17.30;99.90
14755;DHT22;7469;50.906;6.952;2023-09-19T02:22:59;17.20;99.90
14755;DHT22;7469;50.906;6.952;2023-09-19T02:25:27;17.20;99.90
14755;DHT22;7469;50.906;6.952;2023-09-19T02:27:55;17.10;99.90
14755;DHT22;7469;50.906;6.952;2023-09-19T02:30:25;17.10;99.90
14755;DHT22;7469;50.906;6.952;2023-09-19T02:32:53;17.10;99.90
14755;DHT22;7469;50.906;6.952;2023-09-19T02:35:21;17.10;99.90
14755;DHT22;7469;50.906;6.952;2023-09-19T02:37:50;17.10;99.90
14755;DHT22;7469;50.906;6.952;2023-09-19T02:40:18;17.10;99.90
14755;DHT22;7469;50.906;6.952;2023-09-19T02:42:47;17.10;99.90
14755;DHT22;7469;50.906;6.952;2023-09-19T02:45:16;17.10;99.90
14755;DHT22;7469;50.906;6.952;2023-09-19T02:47:46;17.10;99.90
14755;DHT22;7469;50.906;6.952;2023-09-19T02:50:15;17.10;99.90
14755;DHT22;7469;50.906;6.952;2023-09-19T02:52:44;17.10;99.90
14755;DHT22;7469;50.906;6.952;2023-09-19T02:55:16;17.10;99.90
14755;DHT22;7469;50.906;6.952;2023-09-19T02:57:49;17.00;99.90
14755;DHT22;7469;50.906;6.952;2023-09-19T03:00:18;17.00;99.90
14755;DHT22;7469;50.906;6.952;2023-09-19T03:02:48;17.00;99.90
14755;DHT22;7469;50.906;6.952;2023-09-19T03:05:17;17.00;99.90
14755;DHT22;7469;50.906;6.952;2023-09-19T03:07:46;16.90;99.90
14755;DHT22;7469;50.906;6.952;2023-09-19T03:10:18;16.90;99.90
14755;DHT22;7469;50.906;6.952;2023-09-19T03:12:47;16.80;99.90
14755;DHT22;7469;50.906;6.952;2023-09-19T03:15:16;16.80;99.90
14755;DHT22;7469;50.906;6.952;2023-09-19T03:17:45;16.80;99.90
14755;DHT22;7469;50.906;6.952;2023-09-19T03:20:15;16.80;99.90
14755;DHT22;7469;50.906;6.952;2023-09-19T03:22:44;16.80;99.90
14755;DHT22;7469;50.906;6.952;2023-09-19T03:25:12;16.70;99.90
14755;DHT22;7469;50.906;6.952;2023-09-19T03:27:42;16.70;99.90
14755;DHT22;7469;50.906;6.952;2023-09-19T03:30:11;16.70;99.90
14755;DHT22;7469;50.906;6.952;2023-09-19T03:32:44;16.60;99.90
14755;DHT22;7469;50.906;6.952;2023-09-19T03:35:13;16.60;99.90
14755;DHT22;7469;50.906;6.952;2023-09-19T03:37:42;16.70;99.90
14755;DHT22;7469;50.906;6.952;2023-09-19T03:40:10;16.60;99.90
14755;DHT22;7469;50.906;6.952;2023-09-19T03:42:39;16.60;99.90
14755;DHT22;7469;50.906;6.952;2023-09-19T03:45:09;16.70;99.90
14755;DHT22;7469;50.906;6.952;2023-09-19T03:47:40;16.70;99.90
14755;DHT22;7469;50.906;6.952;2023-09-19T03:50:08;16.60;99.90
14755;DHT22;7469;50.906;6.952;2023-09-19T03:52:38;16.60;99.90
14755;DHT22;7469;50.906;6.952;2023-09-19T03:55:07;16.60;99.90
14755;DHT22;7469;50.906;6.952;2023-09-19T03:57:36;16.60;99.90
14755;DHT22;7469;50.906;6.952;2023-09-19T04:00:05;16.60;99.90
14755;DHT22;7469;50.906;6.952;2023-09-19T04:02:40;16.50;99.90
14755;DHT22;7469;50.906;6.952;2023-09-19T04:05:08;16.50;99.90
14755;DHT22;7469;50.906;6.952;2023-09-19T04:07:38;16.50;99.90
14755;DHT22;7469;50.906;6.952;2023-09-19T04:10:06;16.50;99.90
14755;DHT22;7469;50.906;6.952;2023-09-19T04:12:35;16.50;99.90
14755;DHT22;7469;50.906;6.952;2023-09-19T04:15:04;16.40;99.90
14755;DHT22;7469;50.906;6.952;2023-09-19T04:17:32;16.40;99.90
14755;DHT22;7469;50.906;6.952;2023-09-19T04:20:04;16.40;99.90
14755;DHT22;7469;50.906;6.952;2023-09-19T04:22:34;16.40;99.90
14755;DHT22;7469;50.906;6.952;2023-09-19T04:25:05;16.40;99.90
14755;DHT22;7469;50.906;6.952;2023-09-19T04:27:34;16.30;99.90
14755;DHT22;7469;50.906;6.952;2023-09-19T04:30:02;16.30;99.90
14755;DHT22;7469;50.906;6.952;2023-09-19T04:32:37;16.30;99.90
14755;DHT22;7469;50.906;6.952;2023-09-19T04:35:08;16.20;99.90
14755;DHT22;7469;50.906;6.952;2023-09-19T04:37:37;16.20;99.90
14755;DHT22;7469;50.906;6.952;2023-09-19T04:40:07;16.20;99.90
14755;DHT22;7469;50.906;6.952;2023-09-19T04:42:40;16.20;99.90
14755;DHT22;7469;50.906;6.952;2023-09-19T04:45:09;16.20;99.90
14755;DHT22;7469;50.906;6.952;2023-09-19T04:47:38;16.20;99.90
14755;DHT22;7469;50.906;6.952;2023-09-19T04:50:09;16.20;99.90
14755;DHT22;7469;50.906;6.952;2023-09-19T04:52:40;16.20;99.90
14755;DHT22;7469;50.906;6.952;2023-09-19T04:55:11;16.10;99.90
14755;DHT22;7469;50.906;6.952;2023-09-19T04:57:44;16.10;99.90
14755;DHT22;7469;50.906;6.952;2023-09-19T05:00:13;16.10;99.90
14755;DHT22;7469;50.906;6.952;2023-09-19T05:02:44;16.10;99.90
14755;DHT22;7469;50.906;6.952;2023-09-19T05:05:13;16.10;99.90
14755;DHT22;7469;50.906;6.952;2023-09-19T05:07:43;16.10;99.90
14755;DHT22;7469;50.906;6.952;2023-09-19T05:10:12;16.00;99.90
14755;DHT22;7469;50.906;6.952;2023-09-19T05:12:40;16.10;99.90
14755;DHT22;7469;50.906;6.952;2023-09-19T05:15:10;16.00;99.90
14755;DHT22;7469;50.906;6.952;2023-09-19T05:17:39;16.00;99.90
14755;DHT22;7469;50.906;6.952;2023-09-19T05:20:09;16.00;99.90
14755;DHT22;7469;50.906;6.952;2023-09-19T05:22:41;15.90;99.90
14755;DHT22;7469;50.906;6.952;2023-09-19T05:25:10;15.90;99.90
14755;DHT22;7469;50.906;6.952;2023-09-19T05:27:42;15.80;99.90
14755;DHT22;7469;50.906;6.952;2023-09-19T05:30:11;15.90;99.90
14755;DHT22;7469;50.906;6.952;2023-09-19T05:32:40;15.90;99.90
14755;DHT22;7469;50.906;6.952;2023-09-19T05:35:09;15.80;99.90
14755;DHT22;7469;50.906;6.952;2023-09-19T05:37:41;15.80;99.90
14755;DHT22;7469;50.906;6.952;2023-09-19T05:40:10;15.80;99.90
14755;DHT22;7469;50.906;6.952;2023-09-19T05:42:38;15.80;99.90
14755;DHT22;7469;50.906;6.952;2023-09-19T05:45:08;15.80;99.90
14755;DHT22;7469;50.906;6.952;2023-09-19T05:47:39;15.80;99.90
14755;DHT22;7469;50.906;6.952;2023-09-19T05:50:09;15.80;99.90
14755;DHT22;7469;50.906;6.952;2023-09-19T05:52:38;15.80;99.90
14755;DHT22;7469;50.906;6.952;2023-09-19T05:55:09;15.80;99.90
14755;DHT22;7469;50.906;6.952;2023-09-19T05:57:37;15.80;99.90
14755;DHT22;7469;50.906;6.952;2023-09-19T06:00:07;15.80;99.90
14755;DHT22;7469;50.906;6.952;2023-09-19T06:02:37;15.80;99.90
14755;DHT22;7469;50.906;6.952;2023-09-19T06:05:07;15.80;99.90
14755;DHT22;7469;50.906;6.952;2023-09-19T06:07:37;15.90;99.90
14755;DHT22;7469;50.906;6.952;2023-09-19T06:10:06;15.90;99.90
14755;DHT22;7469;50.906;6.952;2023-09-19T06:12:39;15.90;99.90
14755;DHT22;7469;50.906;6.952;2023-09-19T06:15:07;15.90;99.90
14755;DHT22;7469;50.906;6.952;2023-09-19T06:17:39;15.90;99.90
14755;DHT22;7469;50.906;6.952;2023-09-19T06:20:08;15.90;99.90
14755;DHT22;7469;50.906;6.952;2023-09-19T06:22:40;15.90;99.90
14755;DHT22;7469;50.906;6.952;2023-09-19T06:25:09;16.00;99.90
14755;DHT22;7469;50.906;6.952;2023-09-19T06:27:40;16.00;99.90
14755;DHT22;7469;50.906;6.952;2023-09-19T06:30:10;15.90;99.90
14755;DHT22;7469;50.906;6.952;2023-09-19T06:32:39;15.90;99.90
14755;DHT22;7469;50.906;6.952;2023-09-19T06:35:11;15.90;99.90
14755;DHT22;7469;50.906;6.952;2023-09-19T06:37:39;15.90;99.90
14755;DHT22;7469;50.906;6.952;2023-09-19T06:40:09;16.00;99.90
14755;DHT22;7469;50.906;6.952;2023-09-19T06:42:42;16.00;99.90
14755;DHT22;7469;50.906;6.952;2023-09-19T06:45:11;16.00;99.90
14755;DHT22;7469;50.906;6.952;2023-09-19T06:47:44;16.10;99.90
14755;DHT22;7469;50.906;6.952;2023-09-19T06:50:13;16.00;99.90
14755;DHT22;7469;50.906;6.952;2023-09-19T06:52:41;16.10;99.90
14755;DHT22;7469;50.906;6.952;2023-09-19T06:55:09;16.10;99.90
14755;DHT22;7469;50.906;6.952;2023-09-19T06:57:41;16.20;99.90
14755;DHT22;7469;50.906;6.952;2023-09-19T07:00:11;16.20;99.90
14755;DHT22;7469;50.906;6.952;2023-09-19T07:02:45;16.20;99.90
14755;DHT22;7469;50.906;6.952;2023-09-19T07:05:13;16.30;99.90
14755;DHT22;7469;50.906;6.952;2023-09-19T07:07:42;16.40;99.90
14755;DHT22;7469;50.906;6.952;2023-09-19T07:10:12;16.40;99.90
14755;DHT22;7469;50.906;6.952;2023-09-19T07:12:42;16.40;99.90
14755;DHT22;7469;50.906;6.952;2023-09-19T07:15:10;16.40;99.90
14755;DHT22;7469;50.906;6.952;2023-09-19T07:17:38;16.50;99.90
14755;DHT22;7469;50.906;6.952;2023-09-19T07:20:07;16.50;99.90
14755;DHT22;7469;50.906;6.952;2023-09-19T07:22:35;16.60;99.90
14755;DHT22;7469;50.906;6.952;2023-09-19T07:25:06;16.60;99.90
14755;DHT22;7469;50.906;6.952;2023-09-19T07:27:34;16.70;99.90
14755;DHT22;7469;50.906;6.952;2023-09-19T07:30:05;16.80;99.90
14755;DHT22;7469;50.906;6.952;2023-09-19T07:32:35;16.80;99.90
14755;DHT22;7469;50.906;6.952;2023-09-19T07:35:05;16.90;99.90
14755;DHT22;7469;50.906;6.952;2023-09-19T07:37:36;17.00;99.90
14755;DHT22;7469;50.906;6.952;2023-09-19T07:40:04;17.00;99.90
14755;DHT22;7469;50.906;6.952;2023-09-19T07:42:34;17.10;99.90
14755;DHT22;7469;50.906;6.952;2023-09-19T07:45:06;17.00;99.90
14755;DHT22;7469;50.906;6.952;2023-09-19T07:47:34;17.10;99.90
14755;DHT22;7469;50.906;6.952;2023-09-19T07:50:03;17.00;99.90
14755;DHT22;7469;50.906;6.952;2023-09-19T07:52:34;17.10;99.90
14755;DHT22;7469;50.906;6.952;2023-09-19T07:55:02;17.20;99.90
14755;DHT22;7469;50.906;6.952;2023-09-19T07:57:35;17.30;99.90
14755;DHT22;7469;50.906;6.952;2023-09-19T08:00:06;17.40;99.90
14755;DHT22;7469;50.906;6.952;2023-09-19T08:02:35;17.40;99.90
14755;DHT22;7469;50.906;6.952;2023-09-19T08:05:05;17.50;99.90
14755;DHT22;7469;50.906;6.952;2023-09-19T08:07:36;17.60;99.90
14755;DHT22;7469;50.906;6.952;2023-09-19T08:10:06;17.70;99.90
14755;DHT22;7469;50.906;6.952;2023-09-19T08:12:39;17.80;99.90
14755;DHT22;7469;50.906;6.952;2023-09-19T08:15:14;17.80;99.90
14755;DHT22;7469;50.906;6.952;2023-09-19T08:17:43;17.80;99.90
14755;DHT22;7469;50.906;6.952;2023-09-19T08:20:12;17.90;99.90
14755;DHT22;7469;50.906;6.952;2023-09-19T08:22:44;17.90;99.90
14755;DHT22;7469;50.906;6.952;2023-09-19T08:25:14;18.00;99.90
14755;DHT22;7469;50.906;6.952;2023-09-19T08:27:44;18.00;99.90
14755;DHT22;7469;50.906;6.952;2023-09-19T08:30:18;18.10;99.90
14755;DHT22;7469;50.906;6.952;2023-09-19T08:32:47;18.20;99.90
14755;DHT22;7469;50.906;6.952;2023-09-19T08:35:15;18.30;99.90
14755;DHT22;7469;50.906;6.952;2023-09-19T08:37:43;18.30;99.90
14755;DHT22;7469;50.906;6.952;2023-09-19T08:40:12;18.50;99.90
14755;DHT22;7469;50.906;6.952;2023-09-19T08:42:50;18.60;99.90
14755;DHT22;7469;50.906;6.952;2023-09-19T08:45:20;18.60;99.90
14755;DHT22;7469;50.906;6.952;2023-09-19T08:47:56;18.70;99.90
14755;DHT22;7469;50.906;6.952;2023-09-19T08:50:29;18.80;99.90
14755;DHT22;7469;50.906;6.952;2023-09-19T08:53:01;19.00;99.90
14755;DHT22;7469;50.906;6.952;2023-09-19T08:55:31;19.00;99.90
14755;DHT22;7469;50.906;6.952;2023-09-19T08:58:02;19.10;99.90
14755;DHT22;7469;50.906;6.952;2023-09-19T09:00:33;19.20;99.90
14755;DHT22;7469;50.906;6.952;2023-09-19T09:03:03;19.20;99.90
14755;DHT22;7469;50.906;6.952;2023-09-19T09:05:36;19.30;99.90
14755;DHT22;7469;50.906;6.952;2023-09-19T09:08:07;19.30;99.90
14755;DHT22;7469;50.906;6.952;2023-09-19T09:10:37;19.40;99.90
14755;DHT22;7469;50.906;6.952;2023-09-19T09:13:07;19.50;99.90
14755;DHT22;7469;50.906;6.952;2023-09-19T09:15:37;19.60;99.90
14755;DHT22;7469;50.906;6.952;2023-09-19T09:18:06;19.70;99.90
14755;DHT22;7469;50.906;6.952;2023-09-19T09:20:34;19.80;99.90
14755;DHT22;7469;50.906;6.952;2023-09-19T09:23:02;19.90;99.90
14755;DHT22;7469;50.906;6.952;2023-09-19T09:25:48;19.90;99.90
14755;DHT22;7469;50.906;6.952;2023-09-19T09:28:19;20.10;99.90
14755;DHT22;7469;50.906;6.952;2023-09-19T09:30:49;20.20;99.90
14755;DHT22;7469;50.906;6.952;2023-09-19T09:33:17;20.30;99.90
14755;DHT22;7469;50.906;6.952;2023-09-19T09:35:50;20.50;99.90
14755;DHT22;7469;50.906;6.952;2023-09-19T09:38:20;20.70;99.90
14755;DHT22;7469;50.906;6.952;2023-09-19T09:40:52;21.20;99.90
14755;DHT22;7469;50.906;6.952;2023-09-19T09:43:29;21.80;99.90
14755;DHT22;7469;50.906;6.952;2023-09-19T09:46:13;22.20;99.90
14755;DHT22;7469;50.906;6.952;2023-09-19T09:49:01;22.70;99.90
14755;DHT22;7469;50.906;6.952;2023-09-19T09:52:00;22.90;99.90
14755;DHT22;7469;50.906;6.952;2023-09-19T09:54:35;22.90;99.70
14755;DHT22;7469;50.906;6.952;2023-09-19T09:57:07;22.90;99.40
14755;DHT22;7469;50.906;6.952;2023-09-19T09:59:50;22.70;99.30
14755;DHT22;7469;50.906;6.952;2023-09-19T10:02:26;22.50;99.30
14755;DHT22;7469;50.906;6.952;2023-09-19T10:04:56;22.30;99.00
14755;DHT22;7469;50.906;6.952;2023-09-19T10:07:37;22.00;98.70
14755;DHT22;7469;50.906;6.952;2023-09-19T10:10:10;21.80;98.90
14755;DHT22;7469;50.906;6.952;2023-09-19T10:12:44;21.80;99.00
14755;DHT22;7469;50.906;6.952;2023-09-19T10:15:17;22.10;98.90
14755;DHT22;7469;50.906;6.952;2023-09-19T10:17:48;22.50;98.30
14755;DHT22;7469;50.906;6.952;2023-09-19T10:20:17;22.80;97.30
14755;DHT22;7469;50.906;6.952;2023-09-19T10:22:54;22.90;96.30
14755;DHT22;7469;50.906;6.952;2023-09-19T10:25:26;23.00;95.70
14755;DHT22;7469;50.906;6.952;2023-09-19T10:27:56;23.10;95.00
14755;DHT22;7469;50.906;6.952;2023-09-19T10:30:25;22.90;94.90
14755;DHT22;7469;50.906;6.952;2023-09-19T10:33:00;22.60;95.10
14755;DHT22;7469;50.906;6.952;2023-09-19T10:35:29;22.70;95.60
14755;DHT22;7469;50.906;6.952;2023-09-19T10:38:00;22.90;95.30
14755;DHT22;7469;50.906;6.952;2023-09-19T10:40:29;22.90;94.90
14755;DHT22;7469;50.906;6.952;2023-09-19T10:43:04;23.10;94.30
14755;DHT22;7469;50.906;6.952;2023-09-19T10:45:34;23.00;93.60
14755;DHT22;7469;50.906;6.952;2023-09-19T10:48:04;22.70;94.10
14755;DHT22;7469;50.906;6.952;2023-09-19T10:50:41;22.60;93.70
14755;DHT22;7469;50.906;6.952;2023-09-19T10:53:12;22.30;93.90
14755;DHT22;7469;50.906;6.952;2023-09-19T10:55:49;22.30;93.90
14755;DHT22;7469;50.906;6.952;2023-09-19T10:58:26;22.30;93.90
14755;DHT22;7469;50.906;6.952;2023-09-19T11:00:56;22.20;94.20
14755;DHT22;7469;50.906;6.952;2023-09-19T11:03:30;22.20;94.30
14755;DHT22;7469;50.906;6.952;2023-09-19T11:06:03;22.10;94.30
14755;DHT22;7469;50.906;6.952;2023-09-19T11:08:56;22.40;94.10
14755;DHT22;7469;50.906;6.952;2023-09-19T11:11:45;22.50;93.70
14755;DHT22;7469;50.906;6.952;2023-09-19T11:14:39;22.70;92.90
14755;DHT22;7469;50.906;6.952;2023-09-19T11:17:38;22.50;91.80
14755;DHT22;7469;50.906;6.952;2023-09-19T11:20:25;22.70;91.40
14755;DHT22;7469;50.906;6.952;2023-09-19T11:23:20;23.00;91.20
14755;DHT22;7469;50.906;6.952;2023-09-19T11:25:51;23.10;90.10
14755;DHT22;7469;50.906;6.952;2023-09-19T11:28:34;22.80;88.90
14755;DHT22;7469;50.906;6.952;2023-09-19T11:34:39;22.40;88.90
14755;DHT22;7469;50.906;6.952;2023-09-19T11:40:44;22.10;90.20
14755;DHT22;7469;50.906;6.952;2023-09-19T11:43:31;22.10;90.70
14755;DHT22;7469;50.906;6.952;2023-09-19T11:46:03;22.20;90.70
14755;DHT22;7469;50.906;6.952;2023-09-19T11:48:32;22.00;90.10
14755;DHT22;7469;50.906;6.952;2023-09-19T11:51:13;22.00;90.00
14755;DHT22;7469;50.906;6.952;2023-09-19T11:53:50;22.10;88.70
14755;DHT22;7469;50.906;6.952;2023-09-19T11:56:21;22.10;87.60
14755;DHT22;7469;50.906;6.952;2023-09-19T11:58:51;22.20;85.50
14755;DHT22;7469;50.906;6.952;2023-09-19T12:01:23;22.30;84.60
14755;DHT22;7469;50.906;6.952;2023-09-19T12:03:53;22.30;82.50
14755;DHT22;7469;50.906;6.952;2023-09-19T12:06:25;22.20;81.50
14755;DHT22;7469;50.906;6.952;2023-09-19T12:08:54;22.00;80.70
14755;DHT22;7469;50.906;6.952;2023-09-19T12:11:28;21.90;81.50
14755;DHT22;7469;50.906;6.952;2023-09-19T12:13:59;21.90;81.00
14755;DHT22;7469;50.906;6.952;2023-09-19T12:16:27;21.80;81.20
14755;DHT22;7469;50.906;6.952;2023-09-19T12:18:57;21.90;80.50
14755;DHT22;7469;50.906;6.952;2023-09-19T12:21:27;21.80;78.60
14755;DHT22;7469;50.906;6.952;2023-09-19T12:24:11;21.70;78.80
14755;DHT22;7469;50.906;6.952;2023-09-19T12:26:42;21.80;79.80
14755;DHT22;7469;50.906;6.952;2023-09-19T12:29:16;21.80;79.20
14755;DHT22;7469;50.906;6.952;2023-09-19T12:31:51;21.90;79.40
14755;DHT22;7469;50.906;6.952;2023-09-19T12:34:22;22.00;80.00
14755;DHT22;7469;50.906;6.952;2023-09-19T12:37:07;22.00;78.70
14755;DHT22;7469;50.906;6.952;2023-09-19T12:39:48;22.00;77.30
14755;DHT22;7469;50.906;6.952;2023-09-19T12:42:21;22.00;77.70
14755;DHT22;7469;50.906;6.952;2023-09-19T12:44:50;22.00;78.40
14755;DHT22;7469;50.906;6.952;2023-09-19T12:47:22;22.10;78.20
14755;DHT22;7469;50.906;6.952;2023-09-19T12:50:06;22.20;77.80
14755;DHT22;7469;50.906;6.952;2023-09-19T12:52:36;22.30;77.80
14755;DHT22;7469;50.906;6.952;2023-09-19T12:55:04;22.30;77.90
14755;DHT22;7469;50.906;6.952;2023-09-19T12:57:35;22.40;78.00
14755;DHT22;7469;50.906;6.952;2023-09-19T13:00:04;22.40;76.90
14755;DHT22;7469;50.906;6.952;2023-09-19T13:02:34;22.40;75.90
14755;DHT22;7469;50.906;6.952;2023-09-19T13:05:03;22.30;75.70
14755;DHT22;7469;50.906;6.952;2023-09-19T13:07:40;22.50;76.50
14755;DHT22;7469;50.906;6.952;2023-09-19T13:10:10;22.50;77.10
14755;DHT22;7469;50.906;6.952;2023-09-19T13:12:43;22.60;77.50
14755;DHT22;7469;50.906;6.952;2023-09-19T13:15:14;22.70;77.30
14755;DHT22;7469;50.906;6.952;2023-09-19T13:17:47;22.80;75.40
14755;DHT22;7469;50.906;6.952;2023-09-19T13:20:23;22.60;75.30
14755;DHT22;7469;50.906;6.952;2023-09-19T13:22:56;22.60;75.80
14755;DHT22;7469;50.906;6.952;2023-09-19T13:25:27;22.60;76.60
14755;DHT22;7469;50.906;6.952;2023-09-19T13:27:58;22.40;78.40
14755;DHT22;7469;50.906;6.952;2023-09-19T13:30:27;22.30;79.70
14755;DHT22;7469;50.906;6.952;2023-09-19T13:33:05;22.20;80.80
14755;DHT22;7469;50.906;6.952;2023-09-19T13:35:34;22.20;80.90
14755;DHT22;7469;50.906;6.952;2023-09-19T13:38:03;22.20;81.40
14755;DHT22;7469;50.906;6.952;2023-09-19T13:40:33;22.20;81.90
14755;DHT22;7469;50.906;6.952;2023-09-19T13:43:03;22.20;82.20
14755;DHT22;7469;50.906;6.952;2023-09-19T13:45:33;22.30;81.10
14755;DHT22;7469;50.906;6.952;2023-09-19T13:48:01;22.40;81.00
14755;DHT22;7469;50.906;6.952;2023-09-19T13:50:29;22.50;80.70
14755;DHT22;7469;50.906;6.952;2023-09-19T13:52:58;22.60;79.80
14755;DHT22;7469;50.906;6.952;2023-09-19T13:55:27;22.60;79.80
14755;DHT22;7469;50.906;6.952;2023-09-19T13:57:55;22.70;80.30
14755;DHT22;7469;50.906;6.952;2023-09-19T14:00:25;22.80;79.50
14755;DHT22;7469;50.906;6.952;2023-09-19T14:02:53;22.80;78.30
14755;DHT22;7469;50.906;6.952;2023-09-19T14:05:22;22.90;78.60
14755;DHT22;7469;50.906;6.952;2023-09-19T14:07:54;22.90;77.90
14755;DHT22;7469;50.906;6.952;2023-09-19T14:10:26;22.80;78.50
14755;DHT22;7469;50.906;6.952;2023-09-19T14:12:54;22.60;79.10
14755;DHT22;7469;50.906;6.952;2023-09-19T14:15:22;22.40;79.90
14755;DHT22;7469;50.906;6.952;2023-09-19T14:17:58;22.30;80.80
14755;DHT22;7469;50.906;6.952;2023-09-19T14:20:28;22.20;81.30
14755;DHT22;7469;50.906;6.952;2023-09-19T14:22:56;22.10;81.80
14755;DHT22;7469;50.906;6.952;2023-09-19T14:25:25;22.00;82.30
14755;DHT22;7469;50.906;6.952;2023-09-19T14:27:53;22.00;82.80
14755;DHT22;7469;50.906;6.952;2023-09-19T14:30:21;21.90;83.00
14755;DHT22;7469;50.906;6.952;2023-09-19T14:32:49;21.80;83.40
14755;DHT22;7469;50.906;6.952;2023-09-19T14:35:21;21.80;83.70
14755;DHT22;7469;50.906;6.952;2023-09-19T14:37:49;21.70;84.10
14755;DHT22;7469;50.906;6.952;2023-09-19T14:40:18;21.60;84.40
14755;DHT22;7469;50.906;6.952;2023-09-19T14:42:46;21.60;84.60
14755;DHT22;7469;50.906;6.952;2023-09-19T14:45:18;21.50;85.20
14755;DHT22;7469;50.906;6.952;2023-09-19T14:47:46;21.50;85.70
14755;DHT22;7469;50.906;6.952;2023-09-19T14:50:15;21.50;86.30
14755;DHT22;7469;50.906;6.952;2023-09-19T14:52:44;21.50;86.50
14755;DHT22;7469;50.906;6.952;2023-09-19T14:55:12;21.50;86.90
14755;DHT22;7469;50.906;6.952;2023-09-19T14:57:41;21.50;87.10
14755;DHT22;7469;50.906;6.952;2023-09-19T15:00:12;21.50;87.30
14755;DHT22;7469;50.906;6.952;2023-09-19T15:02:40;21.50;87.50
14755;DHT22;7469;50.906;6.952;2023-09-19T15:05:10;21.40;87.20
14755;DHT22;7469;50.906;6.952;2023-09-19T15:07:38;21.40;87.90
14755;DHT22;7469;50.906;6.952;2023-09-19T15:10:09;21.40;88.30
14755;DHT22;7469;50.906;6.952;2023-09-19T15:12:37;21.30;88.70
14755;DHT22;7469;50.906;6.952;2023-09-19T15:15:07;21.30;88.70
14755;DHT22;7469;50.906;6.952;2023-09-19T15:17:36;21.30;88.70
14755;DHT22;7469;50.906;6.952;2023-09-19T15:20:05;21.20;88.40
14755;DHT22;7469;50.906;6.952;2023-09-19T15:22:34;21.10;88.30
14755;DHT22;7469;50.906;6.952;2023-09-19T15:25:03;21.10;88.70
14755;DHT22;7469;50.906;6.952;2023-09-19T15:27:33;21.10;88.70
14755;DHT22;7469;50.906;6.952;2023-09-19T15:30:04;21.00;88.80
14755;DHT22;7469;50.906;6.952;2023-09-19T15:32:33;21.00;89.00
14755;DHT22;7469;50.906;6.952;2023-09-19T15:35:01;21.00;89.20
14755;DHT22;7469;50.906;6.952;2023-09-19T15:37:29;21.00;89.30
14755;DHT22;7469;50.906;6.952;2023-09-19T15:39:57;21.00;89.40
14755;DHT22;7469;50.906;6.952;2023-09-19T15:42:25;21.00;89.40
14755;DHT22;7469;50.906;6.952;2023-09-19T15:44:54;21.10;89.50
14755;DHT22;7469;50.906;6.952;2023-09-19T15:47:22;21.10;89.60
14755;DHT22;7469;50.906;6.952;2023-09-19T15:49:50;21.00;89.80
14755;DHT22;7469;50.906;6.952;2023-09-19T15:52:19;21.00;90.00
14755;DHT22;7469;50.906;6.952;2023-09-19T15:54:47;21.00;90.00
14755;DHT22;7469;50.906;6.952;2023-09-19T15:57:18;21.00;90.20
14755;DHT22;7469;50.906;6.952;2023-09-19T15:59:46;21.00;90.10
14755;DHT22;7469;50.906;6.952;2023-09-19T16:02:16;21.00;90.00
14755;DHT22;7469;50.906;6.952;2023-09-19T16:04:44;21.00;90.10
14755;DHT22;7469;50.906;6.952;2023-09-19T16:07:12;20.90;90.30
14755;DHT22;7469;50.906;6.952;2023-09-19T16:09:41;20.90;90.40
14755;DHT22;7469;50.906;6.952;2023-09-19T16:12:09;21.00;90.50
14755;DHT22;7469;50.906;6.952;2023-09-19T16:14:37;21.00;90.60
14755;DHT22;7469;50.906;6.952;2023-09-19T16:17:05;21.00;90.60
14755;DHT22;7469;50.906;6.952;2023-09-19T16:19:36;21.00;90.60